sensor_id;sensor_type;location;lat;lon;timestamp;P1;durP1;ratioP1;P2;durP2;ratioP2
7527;SDS011;3805;49.006;8.514;2022-11-20T00:00:47;21.93;;;16.17;;
7527;SDS011;3805;49.006;8.514;2022-11-20T00:03:36;19.23;;;16.17;;
7527;SDS011;3805;49.006;8.514;2022-11-20T00:06:26;23.67;;;16.87;;
7527;SDS011;3805;49.006;8.514;2022-11-20T00:09:15;18.53;;;15.17;;
7527;SDS011;3805;49.006;8.514;2022-11-20T00:12:03;25.40;;;16.53;;
7527;SDS011;3805;49.006;8.514;2022-11-20T00:14:52;22.30;;;17.47;;
7527;SDS011;3805;49.006;8.514;2022-11-20T00:17:41;19.17;;;15.90;;
7527;SDS011;3805;49.006;8.514;2022-11-20T00:20:29;22.27;;;16.60;;
7527;SDS011;3805;49.006;8.514;2022-11-20T00:23:19;21.07;;;15.33;;
7527;SDS011;3805;49.006;8.514;2022-11-20T00:26:08;22.87;;;15.87;;
7527;SDS011;3805;49.006;8.514;2022-11-20T00:28:59;20.77;;;15.70;;
7527;SDS011;3805;49.006;8.514;2022-11-20T00:31:48;23.80;;;17.20;;
7527;SDS011;3805;49.006;8.514;2022-11-20T00:34:36;19.60;;;16.33;;
7527;SDS011;3805;49.006;8.514;2022-11-20T00:37:25;21.30;;;16.63;;
7527;SDS011;3805;49.006;8.514;2022-11-20T00:40:15;20.70;;;15.27;;
7527;SDS011;3805;49.006;8.514;2022-11-20T00:43:03;20.73;;;15.57;;
7527;SDS011;3805;49.006;8.514;2022-11-20T00:45:55;20.63;;;17.33;;
7527;SDS011;3805;49.006;8.514;2022-11-20T00:48:45;19.07;;;15.90;;
7527;SDS011;3805;49.006;8.514;2022-11-20T00:51:33;32.63;;;16.90;;
7527;SDS011;3805;49.006;8.514;2022-11-20T00:54:22;19.93;;;15.30;;
7527;SDS011;3805;49.006;8.514;2022-11-20T00:57:11;20.20;;;15.93;;
7527;SDS011;3805;49.006;8.514;2022-11-20T01:00:00;18.23;;;14.97;;
7527;SDS011;3805;49.006;8.514;2022-11-20T01:02:48;21.63;;;15.67;;
7527;SDS011;3805;49.006;8.514;2022-11-20T01:05:37;23.53;;;16.53;;
7527;SDS011;3805;49.006;8.514;2022-11-20T01:08:28;26.13;;;17.43;;
7527;SDS011;3805;49.006;8.514;2022-11-20T01:11:18;22.10;;;16.57;;
7527;SDS011;3805;49.006;8.514;2022-11-20T01:14:09;19.73;;;17.13;;
7527;SDS011;3805;49.006;8.514;2022-11-20T01:17:00;22.13;;;16.47;;
7527;SDS011;3805;49.006;8.514;2022-11-20T01:19:48;25.73;;;18.67;;
7527;SDS011;3805;49.006;8.514;2022-11-20T01:22:37;20.97;;;15.93;;
7527;SDS011;3805;49.006;8.514;2022-11-20T01:25:26;19.90;;;16.10;;
7527;SDS011;3805;49.006;8.514;2022-11-20T01:28:14;23.60;;;15.70;;
7527;SDS011;3805;49.006;8.514;2022-11-20T01:31:11;21.37;;;15.87;;
7527;SDS011;3805;49.006;8.514;2022-11-20T01:34:01;21.93;;;16.37;;
7527;SDS011;3805;49.006;8.514;2022-11-20T01:36:52;22.00;;;16.07;;
7527;SDS011;3805;49.006;8.514;2022-11-20T01:39:40;21.10;;;17.07;;
7527;SDS011;3805;49.006;8.514;2022-11-20T01:42:29;21.17;;;16.10;;
7527;SDS011;3805;49.006;8.514;2022-11-20T01:45:45;16.63;;;14.90;;
7527;SDS011;3805;49.006;8.514;2022-11-20T01:48:44;17.10;;;14.00;;
7527;SDS011;3805;49.006;8.514;2022-11-20T01:51:38;15.93;;;13.87;;
7527;SDS011;3805;49.006;8.514;2022-11-20T01:54:30;16.60;;;13.60;;
7527;SDS011;3805;49.006;8.514;2022-11-20T01:57:21;21.63;;;15.57;;
7527;SDS011;3805;49.006;8.514;2022-11-20T02:00:12;17.90;;;14.63;;
7527;SDS011;3805;49.006;8.514;2022-11-20T02:03:03;16.13;;;13.17;;
7527;SDS011;3805;49.006;8.514;2022-11-20T02:05:58;17.30;;;15.17;;
7527;SDS011;3805;49.006;8.514;2022-11-20T02:08:50;17.10;;;13.97;;
7527;SDS011;3805;49.006;8.514;2022-11-20T02:11:39;20.07;;;13.87;;
7527;SDS011;3805;49.006;8.514;2022-11-20T02:14:27;14.90;;;12.90;;
7527;SDS011;3805;49.006;8.514;2022-11-20T02:17:15;13.43;;;12.00;;
7527;SDS011;3805;49.006;8.514;2022-11-20T02:20:04;15.37;;;11.43;;
7527;SDS011;3805;49.006;8.514;2022-11-20T02:22:55;14.10;;;11.87;;
7527;SDS011;3805;49.006;8.514;2022-11-20T02:25:47;13.13;;;11.70;;
7527;SDS011;3805;49.006;8.514;2022-11-20T02:28:35;14.93;;;11.83;;
7527;SDS011;3805;49.006;8.514;2022-11-20T02:31:24;13.60;;;10.60;;
7527;SDS011;3805;49.006;8.514;2022-11-20T02:34:12;14.50;;;11.67;;
7527;SDS011;3805;49.006;8.514;2022-11-20T02:37:01;11.63;;;10.53;;
7527;SDS011;3805;49.006;8.514;2022-11-20T02:39:50;12.30;;;11.00;;
7527;SDS011;3805;49.006;8.514;2022-11-20T02:42:40;12.63;;;11.30;;
7527;SDS011;3805;49.006;8.514;2022-11-20T02:45:29;12.60;;;11.03;;
7527;SDS011;3805;49.006;8.514;2022-11-20T02:48:17;13.20;;;11.90;;
7527;SDS011;3805;49.006;8.514;2022-11-20T02:51:06;13.70;;;11.77;;
7527;SDS011;3805;49.006;8.514;2022-11-20T02:53:54;13.40;;;11.20;;
7527;SDS011;3805;49.006;8.514;2022-11-20T02:56:43;14.00;;;11.70;;
7527;SDS011;3805;49.006;8.514;2022-11-20T02:59:33;11.20;;;10.00;;
7527;SDS011;3805;49.006;8.514;2022-11-20T03:02:21;13.30;;;11.63;;
7527;SDS011;3805;49.006;8.514;2022-11-20T03:05:10;11.77;;;10.27;;
7527;SDS011;3805;49.006;8.514;2022-11-20T03:07:58;14.30;;;10.20;;
7527;SDS011;3805;49.006;8.514;2022-11-20T03:10:47;13.77;;;8.83;;
7527;SDS011;3805;49.006;8.514;2022-11-20T03:13:35;10.30;;;9.20;;
7527;SDS011;3805;49.006;8.514;2022-11-20T03:16:25;9.40;;;8.60;;
7527;SDS011;3805;49.006;8.514;2022-11-20T03:19:13;8.80;;;8.00;;
7527;SDS011;3805;49.006;8.514;2022-11-20T03:22:02;9.73;;;8.73;;
7527;SDS011;3805;49.006;8.514;2022-11-20T03:24:50;9.63;;;8.60;;
7527;SDS011;3805;49.006;8.514;2022-11-20T03:27:39;10.00;;;9.00;;
7527;SDS011;3805;49.006;8.514;2022-11-20T03:30:27;9.03;;;8.23;;
7527;SDS011;3805;49.006;8.514;2022-11-20T03:33:18;9.23;;;8.40;;
7527;SDS011;3805;49.006;8.514;2022-11-20T03:36:07;8.30;;;7.53;;
7527;SDS011;3805;49.006;8.514;2022-11-20T03:38:57;8.57;;;7.70;;
7527;SDS011;3805;49.006;8.514;2022-11-20T03:41:46;8.60;;;7.80;;
7527;SDS011;3805;49.006;8.514;2022-11-20T03:44:35;7.27;;;6.57;;
7527;SDS011;3805;49.006;8.514;2022-11-20T03:47:23;7.33;;;6.63;;
7527;SDS011;3805;49.006;8.514;2022-11-20T03:50:13;7.93;;;7.03;;
7527;SDS011;3805;49.006;8.514;2022-11-20T03:53:02;8.23;;;7.53;;
7527;SDS011;3805;49.006;8.514;2022-11-20T03:55:50;9.77;;;7.10;;
7527;SDS011;3805;49.006;8.514;2022-11-20T03:58:39;9.80;;;7.20;;
7527;SDS011;3805;49.006;8.514;2022-11-20T04:01:29;9.97;;;7.50;;
7527;SDS011;3805;49.006;8.514;2022-11-20T04:04:19;7.77;;;7.17;;
7527;SDS011;3805;49.006;8.514;2022-11-20T04:07:09;14.43;;;6.90;;
7527;SDS011;3805;49.006;8.514;2022-11-20T04:09:57;7.10;;;6.40;;
7527;SDS011;3805;49.006;8.514;2022-11-20T04:12:46;7.93;;;7.23;;
7527;SDS011;3805;49.006;8.514;2022-11-20T04:15:34;7.80;;;7.03;;
7527;SDS011;3805;49.006;8.514;2022-11-20T04:18:24;7.43;;;6.83;;
7527;SDS011;3805;49.006;8.514;2022-11-20T04:21:13;7.90;;;7.20;;
7527;SDS011;3805;49.006;8.514;2022-11-20T04:24:03;7.00;;;6.40;;
7527;SDS011;3805;49.006;8.514;2022-11-20T04:26:52;7.20;;;6.63;;
7527;SDS011;3805;49.006;8.514;2022-11-20T04:29:40;8.50;;;7.10;;
7527;SDS011;3805;49.006;8.514;2022-11-20T04:32:28;8.30;;;6.93;;
7527;SDS011;3805;49.006;8.514;2022-11-20T04:35:17;9.77;;;7.13;;
7527;SDS011;3805;49.006;8.514;2022-11-20T04:38:05;8.03;;;7.33;;
7527;SDS011;3805;49.006;8.514;2022-11-20T04:40:57;6.97;;;6.27;;
7527;SDS011;3805;49.006;8.514;2022-11-20T04:43:46;7.43;;;6.73;;
7527;SDS011;3805;49.006;8.514;2022-11-20T04:46:37;6.30;;;5.80;;
7527;SDS011;3805;49.006;8.514;2022-11-20T04:49:26;9.23;;;7.50;;
7527;SDS011;3805;49.006;8.514;2022-11-20T04:52:14;7.97;;;7.17;;
7527;SDS011;3805;49.006;8.514;2022-11-20T04:55:03;7.20;;;6.60;;
7527;SDS011;3805;49.006;8.514;2022-11-20T04:57:54;8.07;;;7.23;;
7527;SDS011;3805;49.006;8.514;2022-11-20T05:00:42;6.70;;;6.00;;
7527;SDS011;3805;49.006;8.514;2022-11-20T05:03:31;7.50;;;6.77;;
7527;SDS011;3805;49.006;8.514;2022-11-20T05:06:24;7.17;;;6.47;;
7527;SDS011;3805;49.006;8.514;2022-11-20T05:09:13;11.07;;;7.00;;
7527;SDS011;3805;49.006;8.514;2022-11-20T05:12:01;7.23;;;6.53;;
7527;SDS011;3805;49.006;8.514;2022-11-20T05:14:51;7.00;;;6.30;;
7527;SDS011;3805;49.006;8.514;2022-11-20T05:17:39;7.23;;;6.50;;
7527;SDS011;3805;49.006;8.514;2022-11-20T05:20:28;7.23;;;6.63;;
7527;SDS011;3805;49.006;8.514;2022-11-20T05:23:16;8.60;;;6.50;;
7527;SDS011;3805;49.006;8.514;2022-11-20T05:26:05;7.37;;;6.67;;
7527;SDS011;3805;49.006;8.514;2022-11-20T05:28:54;6.70;;;6.10;;
7527;SDS011;3805;49.006;8.514;2022-11-20T05:31:44;6.27;;;5.63;;
7527;SDS011;3805;49.006;8.514;2022-11-20T05:34:33;5.67;;;5.17;;
7527;SDS011;3805;49.006;8.514;2022-11-20T05:37:21;6.00;;;5.40;;
7527;SDS011;3805;49.006;8.514;2022-11-20T05:40:10;6.53;;;6.03;;
7527;SDS011;3805;49.006;8.514;2022-11-20T05:42:59;6.07;;;5.50;;
7527;SDS011;3805;49.006;8.514;2022-11-20T05:45:51;5.40;;;5.00;;
7527;SDS011;3805;49.006;8.514;2022-11-20T05:48:43;7.00;;;5.60;;
7527;SDS011;3805;49.006;8.514;2022-11-20T05:51:31;5.50;;;5.00;;
7527;SDS011;3805;49.006;8.514;2022-11-20T05:54:20;6.27;;;5.57;;
7527;SDS011;3805;49.006;8.514;2022-11-20T05:57:08;5.53;;;5.00;;
7527;SDS011;3805;49.006;8.514;2022-11-20T05:59:57;6.17;;;5.00;;
7527;SDS011;3805;49.006;8.514;2022-11-20T06:02:45;5.33;;;4.60;;
7527;SDS011;3805;49.006;8.514;2022-11-20T06:05:35;5.33;;;5.00;;
7527;SDS011;3805;49.006;8.514;2022-11-20T06:08:24;4.90;;;4.50;;
7527;SDS011;3805;49.006;8.514;2022-11-20T06:11:13;5.23;;;4.87;;
7527;SDS011;3805;49.006;8.514;2022-11-20T06:14:02;5.30;;;4.83;;
7527;SDS011;3805;49.006;8.514;2022-11-20T06:16:50;4.40;;;3.90;;
7527;SDS011;3805;49.006;8.514;2022-11-20T06:19:39;6.23;;;5.07;;
7527;SDS011;3805;49.006;8.514;2022-11-20T06:22:29;5.00;;;4.60;;
7527;SDS011;3805;49.006;8.514;2022-11-20T06:25:17;4.83;;;4.40;;
7527;SDS011;3805;49.006;8.514;2022-11-20T06:28:05;5.60;;;4.40;;
7527;SDS011;3805;49.006;8.514;2022-11-20T06:30:54;5.57;;;5.00;;
7527;SDS011;3805;49.006;8.514;2022-11-20T06:33:42;5.00;;;4.70;;
7527;SDS011;3805;49.006;8.514;2022-11-20T06:36:31;4.97;;;4.60;;
7527;SDS011;3805;49.006;8.514;2022-11-20T06:39:21;4.40;;;4.10;;
7527;SDS011;3805;49.006;8.514;2022-11-20T06:42:10;5.43;;;4.63;;
7527;SDS011;3805;49.006;8.514;2022-11-20T06:44:59;5.20;;;4.70;;
7527;SDS011;3805;49.006;8.514;2022-11-20T06:47:47;6.30;;;5.00;;
7527;SDS011;3805;49.006;8.514;2022-11-20T06:50:36;5.87;;;5.17;;
7527;SDS011;3805;49.006;8.514;2022-11-20T06:53:24;6.23;;;4.43;;
7527;SDS011;3805;49.006;8.514;2022-11-20T06:56:14;4.80;;;4.40;;
7527;SDS011;3805;49.006;8.514;2022-11-20T06:59:03;4.73;;;4.33;;
7527;SDS011;3805;49.006;8.514;2022-11-20T07:01:52;5.13;;;4.23;;
7527;SDS011;3805;49.006;8.514;2022-11-20T07:04:41;5.03;;;4.03;;
7527;SDS011;3805;49.006;8.514;2022-11-20T07:07:29;4.87;;;4.47;;
7527;SDS011;3805;49.006;8.514;2022-11-20T07:10:18;5.97;;;4.10;;
7527;SDS011;3805;49.006;8.514;2022-11-20T07:13:08;3.97;;;3.67;;
7527;SDS011;3805;49.006;8.514;2022-11-20T07:15:58;7.63;;;3.33;;
7527;SDS011;3805;49.006;8.514;2022-11-20T07:18:47;5.07;;;3.77;;
7527;SDS011;3805;49.006;8.514;2022-11-20T07:21:37;4.60;;;3.80;;
7527;SDS011;3805;49.006;8.514;2022-11-20T07:24:25;4.13;;;3.83;;
7527;SDS011;3805;49.006;8.514;2022-11-20T07:27:14;4.20;;;3.83;;
7527;SDS011;3805;49.006;8.514;2022-11-20T07:30:04;6.40;;;3.93;;
7527;SDS011;3805;49.006;8.514;2022-11-20T07:32:54;4.37;;;3.77;;
7527;SDS011;3805;49.006;8.514;2022-11-20T07:35:43;4.20;;;3.83;;
7527;SDS011;3805;49.006;8.514;2022-11-20T07:38:31;3.87;;;3.57;;
7527;SDS011;3805;49.006;8.514;2022-11-20T07:41:20;4.07;;;3.77;;
7527;SDS011;3805;49.006;8.514;2022-11-20T07:44:08;4.00;;;3.70;;
7527;SDS011;3805;49.006;8.514;2022-11-20T07:46:58;4.63;;;4.00;;
7527;SDS011;3805;49.006;8.514;2022-11-20T07:49:47;4.50;;;4.10;;
7527;SDS011;3805;49.006;8.514;2022-11-20T07:52:35;4.00;;;3.70;;
7527;SDS011;3805;49.006;8.514;2022-11-20T07:55:24;5.00;;;4.20;;
7527;SDS011;3805;49.006;8.514;2022-11-20T07:58:12;7.70;;;4.20;;
7527;SDS011;3805;49.006;8.514;2022-11-20T08:01:02;4.47;;;4.07;;
7527;SDS011;3805;49.006;8.514;2022-11-20T08:03:54;4.00;;;3.80;;
7527;SDS011;3805;49.006;8.514;2022-11-20T08:06:46;8.53;;;5.23;;
7527;SDS011;3805;49.006;8.514;2022-11-20T08:09:34;5.10;;;4.53;;
7527;SDS011;3805;49.006;8.514;2022-11-20T08:12:23;5.00;;;4.30;;
7527;SDS011;3805;49.006;8.514;2022-11-20T08:15:29;5.77;;;5.33;;
7527;SDS011;3805;49.006;8.514;2022-11-20T08:18:17;5.27;;;4.80;;
7527;SDS011;3805;49.006;8.514;2022-11-20T08:21:23;4.83;;;4.50;;
7527;SDS011;3805;49.006;8.514;2022-11-20T08:24:12;5.77;;;4.20;;
7527;SDS011;3805;49.006;8.514;2022-11-20T08:27:00;6.47;;;5.17;;
7527;SDS011;3805;49.006;8.514;2022-11-20T08:29:49;4.93;;;4.63;;
7527;SDS011;3805;49.006;8.514;2022-11-20T08:32:37;6.33;;;4.70;;
7527;SDS011;3805;49.006;8.514;2022-11-20T08:35:26;5.03;;;4.63;;
7527;SDS011;3805;49.006;8.514;2022-11-20T08:38:15;4.90;;;4.47;;
7527;SDS011;3805;49.006;8.514;2022-11-20T08:41:04;4.87;;;4.40;;
7527;SDS011;3805;49.006;8.514;2022-11-20T08:44:12;5.07;;;4.67;;
7527;SDS011;3805;49.006;8.514;2022-11-20T08:47:01;4.00;;;3.60;;
7527;SDS011;3805;49.006;8.514;2022-11-20T08:49:49;6.03;;;5.53;;
7527;SDS011;3805;49.006;8.514;2022-11-20T08:52:37;5.10;;;4.60;;
7527;SDS011;3805;49.006;8.514;2022-11-20T08:55:27;6.90;;;4.53;;
7527;SDS011;3805;49.006;8.514;2022-11-20T08:58:16;5.30;;;4.70;;
7527;SDS011;3805;49.006;8.514;2022-11-20T09:01:05;5.10;;;4.70;;
7527;SDS011;3805;49.006;8.514;2022-11-20T09:03:54;4.70;;;3.87;;
7527;SDS011;3805;49.006;8.514;2022-11-20T09:06:44;5.20;;;4.80;;
7527;SDS011;3805;49.006;8.514;2022-11-20T09:09:38;5.63;;;5.13;;
7527;SDS011;3805;49.006;8.514;2022-11-20T09:12:28;4.77;;;4.47;;
7527;SDS011;3805;49.006;8.514;2022-11-20T09:15:17;5.17;;;4.77;;
7527;SDS011;3805;49.006;8.514;2022-11-20T09:18:06;4.50;;;4.10;;
7527;SDS011;3805;49.006;8.514;2022-11-20T09:20:56;4.80;;;4.40;;
7527;SDS011;3805;49.006;8.514;2022-11-20T09:23:45;5.07;;;4.67;;
7527;SDS011;3805;49.006;8.514;2022-11-20T09:26:34;5.10;;;4.70;;
7527;SDS011;3805;49.006;8.514;2022-11-20T09:29:24;5.20;;;4.80;;
7527;SDS011;3805;49.006;8.514;2022-11-20T09:32:13;5.50;;;5.00;;
7527;SDS011;3805;49.006;8.514;2022-11-20T09:35:02;5.03;;;4.60;;
7527;SDS011;3805;49.006;8.514;2022-11-20T09:37:51;5.57;;;5.00;;
7527;SDS011;3805;49.006;8.514;2022-11-20T09:40:43;5.43;;;4.93;;
7527;SDS011;3805;49.006;8.514;2022-11-20T09:43:40;6.90;;;5.43;;
7527;SDS011;3805;49.006;8.514;2022-11-20T09:46:37;5.93;;;5.40;;
7527;SDS011;3805;49.006;8.514;2022-11-20T09:49:32;5.60;;;5.10;;
7527;SDS011;3805;49.006;8.514;2022-11-20T09:52:39;5.57;;;5.17;;
7527;SDS011;3805;49.006;8.514;2022-11-20T09:55:32;7.80;;;5.10;;
7527;SDS011;3805;49.006;8.514;2022-11-20T09:58:24;5.50;;;5.00;;
7527;SDS011;3805;49.006;8.514;2022-11-20T10:01:17;6.27;;;5.70;;
7527;SDS011;3805;49.006;8.514;2022-11-20T10:04:10;6.23;;;5.73;;
7527;SDS011;3805;49.006;8.514;2022-11-20T10:07:02;8.17;;;6.30;;
7527;SDS011;3805;49.006;8.514;2022-11-20T10:10:14;7.70;;;6.37;;
7527;SDS011;3805;49.006;8.514;2022-11-20T10:13:09;6.73;;;6.03;;
7527;SDS011;3805;49.006;8.514;2022-11-20T10:16:09;7.07;;;6.50;;
7527;SDS011;3805;49.006;8.514;2022-11-20T10:19:05;6.57;;;5.97;;
7527;SDS011;3805;49.006;8.514;2022-11-20T10:22:04;7.30;;;6.43;;
7527;SDS011;3805;49.006;8.514;2022-11-20T10:25:00;7.83;;;6.37;;
7527;SDS011;3805;49.006;8.514;2022-11-20T10:27:55;6.17;;;5.57;;
7527;SDS011;3805;49.006;8.514;2022-11-20T10:30:53;7.23;;;6.53;;
7527;SDS011;3805;49.006;8.514;2022-11-20T10:33:44;7.10;;;6.40;;
7527;SDS011;3805;49.006;8.514;2022-11-20T10:36:58;8.50;;;6.93;;
7527;SDS011;3805;49.006;8.514;2022-11-20T10:39:51;7.70;;;6.60;;
7527;SDS011;3805;49.006;8.514;2022-11-20T10:42:44;7.10;;;6.40;;
7527;SDS011;3805;49.006;8.514;2022-11-20T10:45:36;9.10;;;6.70;;
7527;SDS011;3805;49.006;8.514;2022-11-20T10:48:31;6.63;;;6.03;;
7527;SDS011;3805;49.006;8.514;2022-11-20T10:51:29;6.97;;;6.37;;
7527;SDS011;3805;49.006;8.514;2022-11-20T10:54:24;6.80;;;6.20;;
7527;SDS011;3805;49.006;8.514;2022-11-20T10:57:20;6.67;;;6.17;;
7527;SDS011;3805;49.006;8.514;2022-11-20T11:00:15;6.20;;;5.70;;
7527;SDS011;3805;49.006;8.514;2022-11-20T11:03:07;6.10;;;5.60;;
7527;SDS011;3805;49.006;8.514;2022-11-20T11:06:08;6.70;;;6.10;;
7527;SDS011;3805;49.006;8.514;2022-11-20T11:09:01;6.70;;;6.10;;
7527;SDS011;3805;49.006;8.514;2022-11-20T11:11:52;6.87;;;5.70;;
7527;SDS011;3805;49.006;8.514;2022-11-20T11:14:42;6.47;;;5.87;;
7527;SDS011;3805;49.006;8.514;2022-11-20T11:17:32;6.77;;;6.07;;
7527;SDS011;3805;49.006;8.514;2022-11-20T11:20:21;7.30;;;5.10;;
7527;SDS011;3805;49.006;8.514;2022-11-20T11:23:22;6.77;;;5.50;;
7527;SDS011;3805;49.006;8.514;2022-11-20T11:26:18;5.83;;;5.33;;
7527;SDS011;3805;49.006;8.514;2022-11-20T11:29:17;6.03;;;4.83;;
7527;SDS011;3805;49.006;8.514;2022-11-20T11:32:07;5.73;;;5.30;;
7527;SDS011;3805;49.006;8.514;2022-11-20T11:34:59;5.33;;;4.90;;
7527;SDS011;3805;49.006;8.514;2022-11-20T11:37:49;4.30;;;3.90;;
7527;SDS011;3805;49.006;8.514;2022-11-20T11:40:39;4.93;;;4.63;;
7527;SDS011;3805;49.006;8.514;2022-11-20T11:43:28;5.70;;;4.37;;
7527;SDS011;3805;49.006;8.514;2022-11-20T11:46:36;5.03;;;4.53;;
7527;SDS011;3805;49.006;8.514;2022-11-20T11:49:25;5.73;;;4.63;;
7527;SDS011;3805;49.006;8.514;2022-11-20T11:52:14;5.50;;;4.50;;
7527;SDS011;3805;49.006;8.514;2022-11-20T11:55:04;7.30;;;4.50;;
7527;SDS011;3805;49.006;8.514;2022-11-20T11:58:01;3.80;;;3.50;;
7527;SDS011;3805;49.006;8.514;2022-11-20T12:00:58;5.10;;;4.70;;
7527;SDS011;3805;49.006;8.514;2022-11-20T12:03:52;4.47;;;3.90;;
7527;SDS011;3805;49.006;8.514;2022-11-20T12:06:47;5.93;;;4.00;;
7527;SDS011;3805;49.006;8.514;2022-11-20T12:09:41;4.77;;;4.37;;
7527;SDS011;3805;49.006;8.514;2022-11-20T12:12:32;5.50;;;3.37;;
7527;SDS011;3805;49.006;8.514;2022-11-20T12:15:26;3.40;;;3.10;;
7527;SDS011;3805;49.006;8.514;2022-11-20T12:18:18;3.17;;;2.87;;
7527;SDS011;3805;49.006;8.514;2022-11-20T12:21:15;3.40;;;3.10;;
7527;SDS011;3805;49.006;8.514;2022-11-20T12:24:13;4.57;;;3.13;;
7527;SDS011;3805;49.006;8.514;2022-11-20T12:30:28;4.60;;;2.90;;
7527;SDS011;3805;49.006;8.514;2022-11-20T12:33:22;5.97;;;3.40;;
7527;SDS011;3805;49.006;8.514;2022-11-20T12:36:32;4.53;;;3.50;;
7527;SDS011;3805;49.006;8.514;2022-11-20T12:39:29;5.97;;;4.13;;
7527;SDS011;3805;49.006;8.514;2022-11-20T12:46:04;4.00;;;2.53;;
7527;SDS011;3805;49.006;8.514;2022-11-20T12:49:01;4.60;;;2.37;;
7527;SDS011;3805;49.006;8.514;2022-11-20T12:52:08;6.20;;;2.53;;
7527;SDS011;3805;49.006;8.514;2022-11-20T12:55:12;4.10;;;2.30;;
7527;SDS011;3805;49.006;8.514;2022-11-20T12:58:11;2.50;;;2.10;;
7527;SDS011;3805;49.006;8.514;2022-11-20T13:01:06;3.33;;;1.70;;
7527;SDS011;3805;49.006;8.514;2022-11-20T13:07:52;5.13;;;2.37;;
7527;SDS011;3805;49.006;8.514;2022-11-20T13:10:43;2.60;;;1.83;;
7527;SDS011;3805;49.006;8.514;2022-11-20T13:13:36;2.80;;;2.03;;
7527;SDS011;3805;49.006;8.514;2022-11-20T13:16:34;5.57;;;2.17;;
7527;SDS011;3805;49.006;8.514;2022-11-20T13:19:26;5.73;;;1.90;;
7527;SDS011;3805;49.006;8.514;2022-11-20T13:22:23;4.47;;;1.87;;
7527;SDS011;3805;49.006;8.514;2022-11-20T13:25:23;3.33;;;2.70;;
7527;SDS011;3805;49.006;8.514;2022-11-20T13:28:26;4.80;;;2.50;;
7527;SDS011;3805;49.006;8.514;2022-11-20T13:31:25;3.07;;;2.03;;
7527;SDS011;3805;49.006;8.514;2022-11-20T13:34:22;3.73;;;2.30;;
7527;SDS011;3805;49.006;8.514;2022-11-20T13:37:23;2.37;;;1.90;;
7527;SDS011;3805;49.006;8.514;2022-11-20T13:40:19;4.60;;;2.30;;
7527;SDS011;3805;49.006;8.514;2022-11-20T13:43:20;2.83;;;2.50;;
7527;SDS011;3805;49.006;8.514;2022-11-20T13:46:11;2.87;;;2.63;;
7527;SDS011;3805;49.006;8.514;2022-11-20T13:48:59;2.87;;;2.00;;
7527;SDS011;3805;49.006;8.514;2022-11-20T13:51:59;2.23;;;2.03;;
7527;SDS011;3805;49.006;8.514;2022-11-20T13:54:59;2.90;;;2.37;;
7527;SDS011;3805;49.006;8.514;2022-11-20T13:58:05;2.33;;;2.00;;
7527;SDS011;3805;49.006;8.514;2022-11-20T14:01:07;5.20;;;1.83;;
7527;SDS011;3805;49.006;8.514;2022-11-20T14:03:57;2.30;;;2.10;;
7527;SDS011;3805;49.006;8.514;2022-11-20T14:06:53;3.03;;;2.00;;
7527;SDS011;3805;49.006;8.514;2022-11-20T14:09:49;2.43;;;1.77;;
7527;SDS011;3805;49.006;8.514;2022-11-20T14:12:39;2.87;;;2.23;;
7527;SDS011;3805;49.006;8.514;2022-11-20T14:15:29;3.30;;;2.40;;
7527;SDS011;3805;49.006;8.514;2022-11-20T14:18:20;2.20;;;2.00;;
7527;SDS011;3805;49.006;8.514;2022-11-20T14:21:09;2.70;;;2.37;;
7527;SDS011;3805;49.006;8.514;2022-11-20T14:24:04;2.90;;;2.10;;
7527;SDS011;3805;49.006;8.514;2022-11-20T14:26:53;2.70;;;2.50;;
7527;SDS011;3805;49.006;8.514;2022-11-20T14:29:42;2.50;;;1.80;;
7527;SDS011;3805;49.006;8.514;2022-11-20T14:32:31;2.60;;;1.90;;
7527;SDS011;3805;49.006;8.514;2022-11-20T14:35:24;4.77;;;2.00;;
7527;SDS011;3805;49.006;8.514;2022-11-20T14:38:15;4.10;;;2.10;;
7527;SDS011;3805;49.006;8.514;2022-11-20T14:41:05;3.50;;;2.00;;
7527;SDS011;3805;49.006;8.514;2022-11-20T14:43:56;5.83;;;2.37;;
7527;SDS011;3805;49.006;8.514;2022-11-20T14:46:45;2.73;;;2.13;;
7527;SDS011;3805;49.006;8.514;2022-11-20T14:49:34;3.87;;;1.80;;
7527;SDS011;3805;49.006;8.514;2022-11-20T14:52:25;3.13;;;2.83;;
7527;SDS011;3805;49.006;8.514;2022-11-20T14:55:15;5.53;;;2.70;;
7527;SDS011;3805;49.006;8.514;2022-11-20T14:58:20;2.30;;;2.10;;
7527;SDS011;3805;49.006;8.514;2022-11-20T15:01:11;4.60;;;2.37;;
7527;SDS011;3805;49.006;8.514;2022-11-20T15:04:04;1.80;;;1.70;;
7527;SDS011;3805;49.006;8.514;2022-11-20T15:06:54;7.20;;;2.67;;
7527;SDS011;3805;49.006;8.514;2022-11-20T15:09:45;3.40;;;2.40;;
7527;SDS011;3805;49.006;8.514;2022-11-20T15:12:34;5.40;;;2.67;;
7527;SDS011;3805;49.006;8.514;2022-11-20T15:15:24;3.50;;;2.60;;
7527;SDS011;3805;49.006;8.514;2022-11-20T15:18:16;4.23;;;2.43;;
7527;SDS011;3805;49.006;8.514;2022-11-20T15:21:09;3.13;;;2.27;;
7527;SDS011;3805;49.006;8.514;2022-11-20T15:23:59;2.83;;;2.53;;
7527;SDS011;3805;49.006;8.514;2022-11-20T15:26:49;2.37;;;2.17;;
7527;SDS011;3805;49.006;8.514;2022-11-20T15:29:38;3.03;;;2.37;;
7527;SDS011;3805;49.006;8.514;2022-11-20T15:32:27;2.80;;;2.30;;
7527;SDS011;3805;49.006;8.514;2022-11-20T15:35:16;3.10;;;2.67;;
7527;SDS011;3805;49.006;8.514;2022-11-20T15:38:04;2.90;;;2.30;;
7527;SDS011;3805;49.006;8.514;2022-11-20T15:40:53;3.13;;;2.23;;
7527;SDS011;3805;49.006;8.514;2022-11-20T15:43:43;2.20;;;2.10;;
7527;SDS011;3805;49.006;8.514;2022-11-20T15:46:32;3.30;;;2.77;;
7527;SDS011;3805;49.006;8.514;2022-11-20T15:49:26;3.30;;;2.47;;
7527;SDS011;3805;49.006;8.514;2022-11-20T15:52:15;5.97;;;2.80;;
7527;SDS011;3805;49.006;8.514;2022-11-20T15:55:04;2.60;;;2.33;;
7527;SDS011;3805;49.006;8.514;2022-11-20T15:57:56;9.10;;;3.17;;
7527;SDS011;3805;49.006;8.514;2022-11-20T16:00:46;5.03;;;3.00;;
7527;SDS011;3805;49.006;8.514;2022-11-20T16:03:34;3.03;;;2.77;;
7527;SDS011;3805;49.006;8.514;2022-11-20T16:06:23;8.27;;;3.03;;
7527;SDS011;3805;49.006;8.514;2022-11-20T16:09:12;3.63;;;2.80;;
7527;SDS011;3805;49.006;8.514;2022-11-20T16:12:01;2.67;;;2.43;;
7527;SDS011;3805;49.006;8.514;2022-11-20T16:14:49;5.70;;;2.60;;
7527;SDS011;3805;49.006;8.514;2022-11-20T16:18:01;4.27;;;2.90;;
7527;SDS011;3805;49.006;8.514;2022-11-20T16:20:50;3.20;;;2.90;;
7527;SDS011;3805;49.006;8.514;2022-11-20T16:23:40;6.67;;;3.40;;
7527;SDS011;3805;49.006;8.514;2022-11-20T16:26:29;4.43;;;2.93;;
7527;SDS011;3805;49.006;8.514;2022-11-20T16:29:18;4.90;;;3.70;;
7527;SDS011;3805;49.006;8.514;2022-11-20T16:32:06;3.67;;;3.37;;
7527;SDS011;3805;49.006;8.514;2022-11-20T16:34:58;6.13;;;3.33;;
7527;SDS011;3805;49.006;8.514;2022-11-20T16:37:46;2.50;;;2.30;;
7527;SDS011;3805;49.006;8.514;2022-11-20T16:40:35;2.83;;;2.50;;
7527;SDS011;3805;49.006;8.514;2022-11-20T16:43:24;3.20;;;2.97;;
7527;SDS011;3805;49.006;8.514;2022-11-20T16:46:12;2.57;;;2.23;;
7527;SDS011;3805;49.006;8.514;2022-11-20T16:49:03;3.73;;;3.43;;
7527;SDS011;3805;49.006;8.514;2022-11-20T16:51:54;3.10;;;2.80;;
7527;SDS011;3805;49.006;8.514;2022-11-20T16:54:43;2.20;;;2.00;;
7527;SDS011;3805;49.006;8.514;2022-11-20T16:57:31;3.00;;;2.63;;
7527;SDS011;3805;49.006;8.514;2022-11-20T17:00:21;2.80;;;2.60;;
7527;SDS011;3805;49.006;8.514;2022-11-20T17:03:09;4.87;;;3.20;;
7527;SDS011;3805;49.006;8.514;2022-11-20T17:05:59;4.23;;;3.90;;
7527;SDS011;3805;49.006;8.514;2022-11-20T17:08:49;4.23;;;3.80;;
7527;SDS011;3805;49.006;8.514;2022-11-20T17:11:39;3.27;;;2.70;;
7527;SDS011;3805;49.006;8.514;2022-11-20T17:14:28;3.50;;;3.20;;
7527;SDS011;3805;49.006;8.514;2022-11-20T17:17:16;3.00;;;2.73;;
7527;SDS011;3805;49.006;8.514;2022-11-20T17:20:05;3.60;;;3.30;;
7527;SDS011;3805;49.006;8.514;2022-11-20T17:22:55;3.50;;;3.20;;
7527;SDS011;3805;49.006;8.514;2022-11-20T17:25:45;3.37;;;3.07;;
7527;SDS011;3805;49.006;8.514;2022-11-20T17:28:34;6.53;;;4.53;;
7527;SDS011;3805;49.006;8.514;2022-11-20T17:31:22;5.53;;;3.50;;
7527;SDS011;3805;49.006;8.514;2022-11-20T17:34:13;3.50;;;3.20;;
7527;SDS011;3805;49.006;8.514;2022-11-20T17:37:01;3.70;;;3.00;;
7527;SDS011;3805;49.006;8.514;2022-11-20T17:39:50;3.70;;;3.07;;
7527;SDS011;3805;49.006;8.514;2022-11-20T17:42:40;3.70;;;2.90;;
7527;SDS011;3805;49.006;8.514;2022-11-20T17:45:28;3.00;;;2.80;;
7527;SDS011;3805;49.006;8.514;2022-11-20T17:48:17;4.07;;;3.00;;